Time;durP1;ratioP1;P1;durP2;ratioP2;P2;SDS_P1;SDS_P2;PMS_P1;PMS_P2;Temp;Humidity;BMP_temperature;BMP_pressure;BME280_temperature;BME280_humidity;BME280_pressure;Samples;Min_cycle;Max_cycle;Signal;HPM_P1;HPM_P2
2021/10/05 00:01:33;;;;;;;;;;;;;;;7.79;89.14;101856.31;1940661;73;20144;-61
2021/10/05 00:04:01;;;;;;;;;;;;;;;7.79;89.14;101856.31;1940787;74;20117;-62
2021/10/05 00:06:29;;;;;;;;;;;;;;;7.79;89.09;101853.70;1940717;74;20182;-60
2021/10/05 00:08:56;;;;;;;;;;;;;;;7.79;89.12;101854.15;1940684;74;20140;-62
2021/10/05 00:11:24;;;;;;;;;;;;;;;7.77;89.06;101854.61;1940729;74;20143;-60
2021/10/05 00:13:52;;;;;;;;;;;;;;;7.77;89.03;101849.36;1940702;74;20097;-61
2021/10/05 00:16:20;;;;;;;;;;;;;;;7.76;89.02;101854.17;1940624;74;20180;-61
2021/10/05 00:18:49;;;;;;;;;;;;;;;7.74;88.97;101851.55;1940702;74;20105;-61
2021/10/05 00:21:18;;;;;;;;;;;;;;;7.76;88.95;101856.79;1940688;74;20121;-60
2021/10/05 00:23:46;;;;;;;;;;;;;;;7.73;88.91;101849.84;1940700;74;20139;-61
2021/10/05 00:26:15;;;;;;;;;;;;;;;7.72;88.89;101859.43;1940697;74;20136;-61
2021/10/05 00:28:42;;;;;;;;;;;;;;;7.71;88.85;101856.40;1940595;74;20139;-61
2021/10/05 00:31:11;;;;;;;;;;;;;;;7.72;88.83;101849.39;1940705;74;20117;-61
2021/10/05 00:33:39;;;;;;;;;;;;;;;7.69;88.73;101848.99;1940694;74;20109;-61
2021/10/05 00:36:09;;;;;;;;;;;;;;;7.68;88.71;101845.93;1965278;71;20111;-58
2021/10/05 00:38:36;;;;;;;;;;;;;;;7.67;88.68;101842.90;1974160;73;20149;-58
2021/10/05 00:41:04;;;;;;;;;;;;;;;7.66;88.56;101847.70;1974141;73;20112;-58
2021/10/05 00:43:33;;;;;;;;;;;;;;;7.65;88.51;101840.70;1974151;73;20197;-58
2021/10/05 00:46:01;;;;;;;;;;;;;;;7.65;88.49;101842.02;1974227;73;20099;-60
2021/10/05 00:48:29;;;;;;;;;;;;;;;7.64;88.49;101838.98;1974142;72;20120;-61
2021/10/05 00:50:57;;;;;;;;;;;;;;;7.61;88.26;101840.31;1974141;72;20099;-61
2021/10/05 00:53:25;;;;;;;;;;;;;;;7.61;88.33;101835.06;1974173;73;20150;-61
2021/10/05 00:55:53;;;;;;;;;;;;;;;7.61;88.34;101836.38;1974087;73;20177;-61
2021/10/05 00:58:20;;;;;;;;;;;;;;;7.61;88.36;101835.52;1974175;73;20115;-61
2021/10/05 01:00:48;;;;;;;;;;;;;;;7.59;88.32;101837.29;1974195;73;20147;-61
2021/10/05 01:03:16;;;;;;;;;;;;;;;7.58;88.32;101836.43;1974183;73;20115;-61
2021/10/05 01:05:44;;;;;;;;;;;;;;;7.57;88.33;101830.75;1974193;73;20111;-61
2021/10/05 01:08:14;;;;;;;;;;;;;;;7.58;88.29;101835.12;1974136;73;20179;-61
2021/10/05 01:10:41;;;;;;;;;;;;;;;7.57;88.25;101832.05;1973943;73;20167;-61
2021/10/05 01:13:09;;;;;;;;;;;;;;;7.56;88.26;101834.23;1974178;73;20116;-61
2021/10/05 01:15:37;;;;;;;;;;;;;;;7.56;88.24;101831.61;1974100;73;20135;-61
2021/10/05 01:18:05;;;;;;;;;;;;;;;7.55;88.17;101828.58;1974187;73;20119;-61
2021/10/05 01:20:34;;;;;;;;;;;;;;;7.54;88.17;101829.45;1974165;73;20235;-61
2021/10/05 01:23:02;;;;;;;;;;;;;;;7.54;88.13;101826.41;1973143;73;20158;-61
2021/10/05 01:25:31;;;;;;;;;;;;;;;7.53;88.15;101831.22;1974143;73;20123;-61
2021/10/05 01:27:59;;;;;;;;;;;;;;;7.54;88.09;101834.28;1974128;73;20476;-60
2021/10/05 01:30:27;;;;;;;;;;;;;;;7.53;87.93;101835.59;1974105;73;20149;-61
2021/10/05 01:35:43;;;;;;;;;;;;;;;7.52;87.92;101829.91;1947034;74;20172;-59
2021/10/05 01:38:10;;;;;;;;;;;;;;;7.53;87.91;101832.97;1947081;74;20164;-59
2021/10/05 01:40:38;;;;;;;;;;;;;;;7.53;87.88;101830.35;1947090;74;20105;-59
2021/10/05 01:43:06;;;;;;;;;;;;;;;7.56;87.88;101830.30;1947086;74;20191;-60
2021/10/05 01:45:37;;;;;;;;;;;;;;;7.55;87.85;101828.58;1947062;74;20113;-59
2021/10/05 01:48:04;;;;;;;;;;;;;;;7.56;87.84;101830.30;1946946;73;20117;-59
2021/10/05 01:50:31;;;;;;;;;;;;;;;7.58;87.80;101833.81;1947047;74;20101;-59
2021/10/05 01:52:59;;;;;;;;;;;;;;;7.58;87.79;101829.87;1947081;74;20144;-60
2021/10/05 01:55:27;;;;;;;;;;;;;;;7.58;87.69;101828.56;1947073;74;20226;-59
2021/10/05 01:57:55;;;;;;;;;;;;;;;7.60;87.67;101830.73;1947055;74;20113;-60
2021/10/05 02:00:23;;;;;;;;;;;;;;;7.60;87.60;101828.11;1947001;74;20118;-59
2021/10/05 02:02:53;;;;;;;;;;;;;;;7.60;87.56;101828.11;1947063;73;20117;-59
2021/10/05 02:05:20;;;;;;;;;;;;;;;7.62;87.56;101826.79;1947041;74;20147;-59
2021/10/05 02:07:48;;;;;;;;;;;;;;;7.62;87.57;101824.17;1947057;74;20117;-59
2021/10/05 02:10:16;;;;;;;;;;;;;;;7.61;87.45;101821.10;1947021;74;20115;-60
2021/10/05 02:12:44;;;;;;;;;;;;;;;7.63;87.43;101822.81;1947036;74;20121;-59
2021/10/05 02:15:11;;;;;;;;;;;;;;;7.64;87.29;101819.77;1946978;74;20226;-59
2021/10/05 02:17:39;;;;;;;;;;;;;;;7.66;87.25;101818.86;1947048;74;20117;-60
2021/10/05 02:20:08;;;;;;;;;;;;;;;7.70;86.98;101827.12;1947021;74;20109;-59
2021/10/05 02:22:36;;;;;;;;;;;;;;;7.72;86.90;101821.41;1947021;74;20485;-59
2021/10/05 02:25:05;;;;;;;;;;;;;;;7.74;86.79;101820.95;1947039;74;20097;-62
2021/10/05 02:27:33;;;;;;;;;;;;;;;7.76;86.71;101821.39;1947053;74;20340;-60
2021/10/05 02:30:01;;;;;;;;;;;;;;;7.77;86.58;101817.91;1947258;74;20106;-59
2021/10/05 02:32:29;;;;;;;;;;;;;;;7.76;86.46;101814.84;1947151;74;20159;-60
2021/10/05 02:34:56;;;;;;;;;;;;;;;7.77;86.49;101824.00;1941853;74;20153;-59
2021/10/05 02:37:29;;;;;;;;;;;;;;;7.78;86.46;101814.38;1937000;74;20110;-59
2021/10/05 02:39:54;;;;;;;;;;;;;;;7.79;86.46;101817.44;1937333;72;20113;-58
2021/10/05 02:42:22;;;;;;;;;;;;;;;7.78;86.35;101822.24;1937040;74;20195;-59
2021/10/05 02:44:49;;;;;;;;;;;;;;;7.78;86.37;101819.63;1937052;74;20102;-59
2021/10/05 02:47:17;;;;;;;;;;;;;;;7.79;86.45;101818.75;1937070;74;20203;-59
2021/10/05 02:49:45;;;;;;;;;;;;;;;7.79;86.36;101818.75;1937028;74;20102;-58
2021/10/05 02:52:14;;;;;;;;;;;;;;;7.78;86.38;101817.00;1937045;74;20118;-59
2021/10/05 02:54:42;;;;;;;;;;;;;;;7.79;86.42;101816.13;1937002;74;20200;-59
2021/10/05 02:57:09;;;;;;;;;;;;;;;7.78;86.47;101814.38;1937035;74;20165;-59
2021/10/05 02:59:37;;;;;;;;;;;;;;;7.78;86.59;101819.63;1937040;74;20194;-59
2021/10/05 03:02:05;;;;;;;;;;;;;;;7.76;86.58;101812.22;1937037;74;20117;-59
2021/10/05 03:04:33;;;;;;;;;;;;;;;7.76;86.69;101810.91;1937063;74;20588;-60
2021/10/05 03:07:02;;;;;;;;;;;;;;;7.74;86.71;101804.36;1937021;74;20117;-60
2021/10/05 03:09:30;;;;;;;;;;;;;;;7.73;86.88;101805.27;1936986;74;20118;-59
2021/10/05 03:12:18;;;;;;;;;;;;;;;7.71;86.90;101807.89;1873159;76;20170;-60
2021/10/05 03:14:46;;;;;;;;;;;;;;;7.69;87.05;101808.36;1873060;77;20148;-59
2021/10/05 03:17:14;;;;;;;;;;;;;;;7.69;87.15;101808.36;1873086;77;20117;-59
2021/10/05 03:19:41;;;;;;;;;;;;;;;7.69;87.15;101804.84;1873195;77;20194;-59
2021/10/05 03:22:09;;;;;;;;;;;;;;;7.68;87.36;101803.98;1873190;77;20117;-59
2021/10/05 03:24:37;;;;;;;;;;;;;;;7.68;87.29;101813.16;1873100;77;20105;-60
2021/10/05 03:27:06;;;;;;;;;;;;;;;7.68;87.34;101813.61;1873055;77;20121;-59
2021/10/05 03:29:34;;;;;;;;;;;;;;;7.67;87.45;101808.82;1873049;77;20108;-58
2021/10/05 03:32:01;;;;;;;;;;;;;;;7.67;87.53;101809.23;1872981;77;20125;-59
2021/10/05 03:34:29;;;;;;;;;;;;;;;7.67;87.50;101814.06;1873047;77;20101;-60
2021/10/05 03:36:57;;;;;;;;;;;;;;;7.67;87.50;101816.69;1873060;77;20125;-60
2021/10/05 03:39:25;;;;;;;;;;;;;;;7.68;87.59;101818.41;1872952;77;20145;-60
2021/10/05 03:41:53;;;;;;;;;;;;;;;7.68;87.59;101809.23;1873082;77;20172;-59
2021/10/05 03:44:21;;;;;;;;;;;;;;;7.69;87.63;101825.40;1873074;77;20117;-59
2021/10/05 03:46:50;;;;;;;;;;;;;;;7.71;87.70;101818.83;1872982;77;20109;-60
2021/10/05 03:49:17;;;;;;;;;;;;;;;7.71;87.73;101819.70;1873038;77;20148;-59
2021/10/05 03:51:46;;;;;;;;;;;;;;;7.71;87.86;101822.31;1873034;77;20121;-59
2021/10/05 03:54:14;;;;;;;;;;;;;;;7.72;87.86;101821.41;1873048;77;20367;-59
2021/10/05 03:56:42;;;;;;;;;;;;;;;7.73;87.88;101822.30;1873292;77;20121;-59
2021/10/05 03:59:15;;;;;;;;;;;;;;;7.73;87.92;101819.69;1873042;77;20113;-60
2021/10/05 04:01:40;;;;;;;;;;;;;;;7.73;88.03;101820.55;1873036;76;20160;-59
2021/10/05 04:04:07;;;;;;;;;;;;;;;7.73;88.13;101823.17;1873047;77;20117;-59
2021/10/05 04:06:35;;;;;;;;;;;;;;;7.73;88.09;101823.17;1873103;77;20109;-60
2021/10/05 04:09:06;;;;;;;;;;;;;;;7.73;88.35;101821.86;1873046;77;20199;-59
2021/10/05 04:11:34;;;;;;;;;;;;;;;7.72;88.31;101820.55;1879433;76;20163;-60
2021/10/05 04:14:02;;;;;;;;;;;;;;;7.73;88.53;101827.55;1885537;76;20199;-60
2021/10/05 04:16:30;;;;;;;;;;;;;;;7.71;88.64;101823.63;1885580;76;20158;-60
2021/10/05 04:18:58;;;;;;;;;;;;;;;7.71;88.64;101826.25;1885623;76;20116;-60
2021/10/05 04:21:26;;;;;;;;;;;;;;;7.69;88.68;101829.33;1885564;76;20108;-62
2021/10/05 04:23:53;;;;;;;;;;;;;;;7.71;88.73;101830.19;1885594;76;20175;-62
2021/10/05 04:26:21;;;;;;;;;;;;;;;7.71;88.82;101829.32;1885524;76;20112;-61
2021/10/05 04:28:49;;;;;;;;;;;;;;;7.71;89.01;101834.11;1885663;76;20117;-61
2021/10/05 04:31:17;;;;;;;;;;;;;;;7.69;89.05;101826.71;1885589;76;20116;-61
2021/10/05 04:33:45;;;;;;;;;;;;;;;7.69;89.22;101831.95;1885623;76;20152;-61
2021/10/05 04:36:13;;;;;;;;;;;;;;;7.68;89.31;101832.83;1885626;76;20147;-62
2021/10/05 04:38:41;;;;;;;;;;;;;;;7.68;89.29;101831.52;1885579;76;20125;-62
2021/10/05 04:41:10;;;;;;;;;;;;;;;7.68;89.36;101830.20;1885479;76;20227;-61
2021/10/05 04:43:57;;;;;;;;;;;;;;;7.68;89.43;101828.89;1847190;78;20160;-60
2021/10/05 04:46:25;;;;;;;;;;;;;;;7.66;89.64;101829.34;1847198;78;20111;-59
2021/10/05 04:48:53;;;;;;;;;;;;;;;7.65;89.63;101832.84;1847350;77;20135;-59
2021/10/05 04:51:20;;;;;;;;;;;;;;;7.65;89.77;101835.91;1847002;78;20253;-60
2021/10/05 04:53:48;;;;;;;;;;;;;;;7.65;89.82;101839.39;1847178;78;20178;-59
2021/10/05 04:56:16;;;;;;;;;;;;;;;7.64;89.86;101840.30;1847206;78;20122;-59
2021/10/05 04:58:44;;;;;;;;;;;;;;;7.65;89.94;101836.77;1847174;78;20123;-60
2021/10/05 05:01:12;;;;;;;;;;;;;;;7.66;89.95;101842.45;1847198;78;20175;-59
2021/10/05 05:03:40;;;;;;;;;;;;;;;7.66;90.11;101856.87;1847202;78;20118;-60
2021/10/05 05:06:07;;;;;;;;;;;;;;;7.66;90.04;101849.01;1847090;78;20107;-60
2021/10/05 05:08:36;;;;;;;;;;;;;;;7.65;90.19;101860.37;1847176;78;20154;-60
2021/10/05 05:11:04;;;;;;;;;;;;;;;7.66;90.51;101858.19;1847145;78;20119;-59
2021/10/05 05:13:31;;;;;;;;;;;;;;;7.66;90.50;101857.33;1847181;78;20170;-60
2021/10/05 05:15:59;;;;;;;;;;;;;;;7.65;90.71;101861.67;1847179;78;20150;-60
2021/10/05 05:18:27;;;;;;;;;;;;;;;7.64;90.76;101863.89;1847089;78;20119;-60
2021/10/05 05:20:54;;;;;;;;;;;;;;;7.62;90.89;101866.11;1847165;78;20107;-59
2021/10/05 05:23:22;;;;;;;;;;;;;;;7.62;91.04;101861.72;1847152;78;20131;-60
2021/10/05 05:25:50;;;;;;;;;;;;;;;7.62;91.15;101864.80;1847151;78;20119;-60
2021/10/05 05:28:20;;;;;;;;;;;;;;;7.62;91.34;101865.66;1847122;78;20123;-59
2021/10/05 05:30:47;;;;;;;;;;;;;;;7.60;91.32;101875.29;1847247;78;20397;-60
2021/10/05 05:33:15;;;;;;;;;;;;;;;7.61;91.34;101880.08;1847102;78;20166;-59
2021/10/05 05:35:43;;;;;;;;;;;;;;;7.61;91.46;101880.94;1847112;78;20119;-59
2021/10/05 05:38:11;;;;;;;;;;;;;;;7.62;91.61;101876.14;1847255;78;20205;-59
2021/10/05 05:40:39;;;;;;;;;;;;;;;7.63;91.73;101880.94;1847144;78;20119;-59
2021/10/05 05:43:07;;;;;;;;;;;;;;;7.63;91.77;101879.62;1869942;76;20120;-59
2021/10/05 05:45:35;;;;;;;;;;;;;;;7.64;91.76;101884.86;1892415;76;20120;-60
2021/10/05 05:48:03;;;;;;;;;;;;;;;7.65;91.78;101893.13;1892547;76;20185;-59
2021/10/05 05:50:31;;;;;;;;;;;;;;;7.67;91.80;101891.39;1892542;76;20112;-59
2021/10/05 05:52:59;;;;;;;;;;;;;;;7.68;91.75;101887.87;1892491;76;20139;-59
2021/10/05 05:55:27;;;;;;;;;;;;;;;7.71;91.83;101886.55;1892515;76;20116;-59
2021/10/05 05:57:54;;;;;;;;;;;;;;;7.73;91.78;101894.41;1892486;76;20147;-59
2021/10/05 06:00:22;;;;;;;;;;;;;;;7.74;91.76;101903.54;1892453;76;20120;-59
2021/10/05 06:02:50;;;;;;;;;;;;;;;7.76;91.74;101895.66;1892645;76;20116;-59
2021/10/05 06:05:18;;;;;;;;;;;;;;;7.78;91.74;101901.77;1892620;76;20121;-59
2021/10/05 06:07:46;;;;;;;;;;;;;;;7.79;91.68;101889.55;1892640;76;20116;-59
2021/10/05 06:10:14;;;;;;;;;;;;;;;7.81;91.69;101895.64;1892625;76;20362;-59
2021/10/05 06:12:42;;;;;;;;;;;;;;;7.83;91.74;101899.12;1892529;76;20120;-59
2021/10/05 06:15:12;;;;;;;;;;;;;;;7.84;91.84;101903.45;1892608;76;20148;-59
2021/10/05 06:17:40;;;;;;;;;;;;;;;7.85;91.74;101897.34;1892835;76;20162;-59
2021/10/05 06:20:12;;;;;;;;;;;;;;;7.86;91.71;101910.91;1892624;76;20128;-59
2021/10/05 06:22:40;;;;;;;;;;;;;;;7.84;91.60;101914.84;1892661;76;20160;-60
2021/10/05 06:25:10;;;;;;;;;;;;;;;7.84;91.59;101914.84;1892768;76;20151;-59
2021/10/05 06:27:38;;;;;;;;;;;;;;;7.84;91.65;101912.64;1892627;76;20120;-60
2021/10/05 06:30:07;;;;;;;;;;;;;;;7.83;91.61;101912.23;1892652;76;20151;-60
2021/10/05 06:32:35;;;;;;;;;;;;;;;7.83;91.66;101918.78;1886982;76;20143;-59
2021/10/05 06:35:03;;;;;;;;;;;;;;;7.84;91.71;101917.87;1892629;76;20162;-59
2021/10/05 06:37:37;;;;;;;;;;;;;;;7.84;91.73;101927.95;1892598;76;20116;-60
2021/10/05 06:40:01;;;;;;;;;;;;;;;7.84;91.69;101925.75;1890500;76;20120;-59
2021/10/05 06:42:33;;;;;;;;;;;;;;;7.84;91.78;101927.06;1892852;76;20128;-60
2021/10/05 06:44:58;;;;;;;;;;;;;;;7.83;91.71;101932.75;1892225;76;20222;-59
2021/10/05 06:47:26;;;;;;;;;;;;;;;7.83;91.77;101929.27;1892635;76;20151;-59
2021/10/05 06:49:54;;;;;;;;;;;;;;;7.83;91.84;101918.33;1892652;76;20120;-59
2021/10/05 06:52:22;;;;;;;;;;;;;;;7.84;91.77;101930.99;1892688;76;20171;-60
2021/10/05 06:54:49;;;;;;;;;;;;;;;7.85;91.76;101936.23;1892628;76;20124;-59
2021/10/05 06:57:17;;;;;;;;;;;;;;;7.85;91.70;101926.19;1892634;76;20146;-59
2021/10/05 06:59:45;;;;;;;;;;;;;;;7.87;91.72;101921.80;1892623;76;20151;-59
2021/10/05 07:02:13;;;;;;;;;;;;;;;7.90;91.69;101930.96;1892618;76;20150;-59
2021/10/05 07:04:41;;;;;;;;;;;;;;;7.91;91.62;101931.37;1892570;76;20147;-60
2021/10/05 07:07:09;;;;;;;;;;;;;;;7.94;91.63;101931.35;1892601;76;20199;-60
2021/10/05 07:09:37;;;;;;;;;;;;;;;7.94;91.59;101933.98;1892620;76;20121;-59
2021/10/05 07:12:05;;;;;;;;;;;;;;;7.97;91.63;101931.34;1892630;76;20113;-59
2021/10/05 07:14:33;;;;;;;;;;;;;;;7.99;91.60;101933.50;1892508;76;20136;-60
2021/10/05 07:17:01;;;;;;;;;;;;;;;8.01;91.54;101930.42;1892547;76;20116;-60
2021/10/05 07:19:29;;;;;;;;;;;;;;;8.03;91.50;101933.89;1892510;76;20116;-60
2021/10/05 07:21:57;;;;;;;;;;;;;;;8.07;91.57;101936.05;1892728;76;20143;-59
2021/10/05 07:24:25;;;;;;;;;;;;;;;8.07;91.59;101938.22;1892645;76;20149;-59
2021/10/05 07:26:53;;;;;;;;;;;;;;;8.06;91.46;101928.63;1892589;76;20116;-59
2021/10/05 07:29:21;;;;;;;;;;;;;;;8.08;91.41;101939.11;1892611;76;20120;-59
2021/10/05 07:31:48;;;;;;;;;;;;;;;8.06;91.43;101946.99;1892450;76;20104;-61
2021/10/05 07:34:16;;;;;;;;;;;;;;;8.06;91.46;101946.99;1892594;76;20124;-59
2021/10/05 07:36:44;;;;;;;;;;;;;;;8.06;91.45;101948.30;1892595;76;20113;-59
2021/10/05 07:42:00;;;;;;;;;;;;;;;8.07;91.48;101946.54;1925483;75;20114;-59
2021/10/05 07:44:30;;;;;;;;;;;;;;;8.07;91.46;101945.23;1925412;75;20148;-59
2021/10/05 07:46:58;;;;;;;;;;;;;;;8.07;91.54;101944.78;1925488;75;20140;-59
2021/10/05 07:49:26;;;;;;;;;;;;;;;8.09;91.58;101950.02;1925494;75;20462;-59
2021/10/05 07:51:55;;;;;;;;;;;;;;;8.09;91.57;101951.33;1925476;75;20130;-59
2021/10/05 07:54:22;;;;;;;;;;;;;;;8.10;91.56;101950.45;1925500;75;20122;-59
2021/10/05 07:56:50;;;;;;;;;;;;;;;8.10;91.63;101947.83;1925421;75;20120;-59
2021/10/05 07:59:18;;;;;;;;;;;;;;;8.09;91.57;101941.69;1925488;75;20209;-59
2021/10/05 08:01:50;;;;;;;;;;;;;;;8.10;91.59;101940.82;1925490;75;20118;-59
2021/10/05 08:04:18;;;;;;;;;;;;;;;8.11;91.54;101943.00;1925596;75;20118;-60
2021/10/05 08:06:46;;;;;;;;;;;;;;;8.11;91.46;101946.52;1925508;74;20098;-59
2021/10/05 08:09:15;;;;;;;;;;;;;;;8.14;91.51;101952.61;1925497;75;20173;-60
2021/10/05 08:11:43;;;;;;;;;;;;;;;8.17;91.50;101948.63;1925434;74;20361;-59
2021/10/05 08:14:11;;;;;;;;;;;;;;;8.20;91.56;101955.16;1925500;75;20110;-60
2021/10/05 08:16:39;;;;;;;;;;;;;;;8.22;91.43;101954.25;1925490;75;20404;-59
2021/10/05 08:19:07;;;;;;;;;;;;;;;8.25;91.44;101959.48;1925454;74;20114;-59
2021/10/05 08:21:35;;;;;;;;;;;;;;;8.27;91.35;101959.47;1925510;75;20152;-59
2021/10/05 08:24:03;;;;;;;;;;;;;;;8.29;91.32;101948.52;1925390;74;20125;-61
2021/10/05 08:26:32;;;;;;;;;;;;;;;8.29;91.18;101951.14;1925548;75;20114;-61
2021/10/05 08:29:02;;;;;;;;;;;;;;;8.31;91.10;101965.11;2000000;71;20105;-59
2021/10/05 08:31:29;;;;;;;;;;;;;;;8.30;90.76;101967.32;2009216;71;20105;-59
2021/10/05 08:33:57;;;;;;;;;;;;;;;8.34;90.76;101961.56;2009176;71;20136;-60
2021/10/05 08:36:25;;;;;;;;;;;;;;;8.36;90.73;101960.69;2009156;71;20144;-60
2021/10/05 08:38:53;;;;;;;;;;;;;;;8.38;90.73;101972.04;2009184;71;20172;-60
2021/10/05 08:41:22;;;;;;;;;;;;;;;8.42;90.76;101966.34;2009206;71;20113;-60
2021/10/05 08:43:50;;;;;;;;;;;;;;;8.43;90.71;101970.73;2009180;71;20105;-59
2021/10/05 08:46:18;;;;;;;;;;;;;;;8.46;90.62;101977.23;2009296;71;20524;-59
2021/10/05 08:48:47;;;;;;;;;;;;;;;8.45;90.36;101976.37;2009187;71;20156;-59
2021/10/05 08:51:15;;;;;;;;;;;;;;;8.46;90.35;101978.09;2009066;71;20098;-59
2021/10/05 08:53:43;;;;;;;;;;;;;;;8.47;90.24;101979.85;2009224;71;20109;-59
2021/10/05 08:56:11;;;;;;;;;;;;;;;8.49;90.08;101977.22;2009188;71;20109;-59
2021/10/05 08:58:40;;;;;;;;;;;;;;;8.51;90.17;101980.69;2009172;71;20107;-60
2021/10/05 09:01:09;;;;;;;;;;;;;;;8.53;90.10;101980.67;2009185;71;20383;-59
2021/10/05 09:03:38;;;;;;;;;;;;;;;8.55;89.98;101988.95;2009123;71;20379;-60
2021/10/05 09:06:09;;;;;;;;;;;;;;;8.58;90.02;101988.93;2009156;71;20523;-59
2021/10/05 09:08:39;;;;;;;;;;;;;;;8.60;89.96;101988.92;2009129;71;20110;-59
2021/10/05 09:11:07;;;;;;;;;;;;;;;8.62;89.98;101997.64;2009170;71;20160;-60
2021/10/05 09:13:37;;;;;;;;;;;;;;;8.61;89.78;101995.47;2009147;71;20151;-61
2021/10/05 09:16:16;;;;;;;;;;;;;;;8.62;89.82;102005.52;2009116;71;20098;-61
2021/10/05 09:18:55;;;;;;;;;;;;;;;8.63;89.71;101998.05;1981421;71;20105;-61
2021/10/05 09:21:24;;;;;;;;;;;;;;;8.62;89.62;101998.95;2009182;71;20086;-61
2021/10/05 09:23:56;;;;;;;;;;;;;;;8.62;89.58;101996.33;2007899;71;20144;-60
2021/10/05 09:26:44;;;;;;;;;;;;;;;8.64;89.61;102000.66;2007937;71;20137;-61
2021/10/05 09:29:13;;;;;;;;;;;;;;;8.66;89.64;101993.64;2003631;71;20106;-60
2021/10/05 09:31:52;;;;;;;;;;;;;;;8.68;89.61;102009.38;1999996;72;20113;-61
2021/10/05 09:34:19;;;;;;;;;;;;;;;8.68;89.56;102009.38;2001422;72;20531;-61
2021/10/05 09:36:48;;;;;;;;;;;;;;;8.70;89.57;102003.66;2001468;72;20143;-61
2021/10/05 09:39:16;;;;;;;;;;;;;;;8.72;89.58;102007.14;2001444;72;20109;-61
2021/10/05 09:41:45;;;;;;;;;;;;;;;8.73;89.29;102012.83;2001484;72;20417;-61
2021/10/05 09:47:01;;;;;;;;;;;;;;;8.76;89.15;102014.13;1897544;75;20120;-61
2021/10/05 09:49:29;;;;;;;;;;;;;;;8.80;88.94;102014.96;1897381;75;20112;-62
2021/10/05 09:51:58;;;;;;;;;;;;;;;8.83;88.87;102008.34;1897487;76;20163;-61
2021/10/05 09:54:26;;;;;;;;;;;;;;;8.86;88.91;102022.77;1897459;76;20108;-61
2021/10/05 09:56:54;;;;;;;;;;;;;;;8.87;88.83;102021.44;1897522;76;20214;-61
2021/10/05 09:59:22;;;;;;;;;;;;;;;8.89;88.57;102020.11;1897473;76;20120;-61
2021/10/05 10:01:50;;;;;;;;;;;;;;;8.92;88.57;102021.82;1897532;76;20120;-62
2021/10/05 10:04:20;;;;;;;;;;;;;;;8.94;88.26;102020.04;1897497;76;20222;-61
2021/10/05 10:06:47;;;;;;;;;;;;;;;8.97;88.22;102010.37;1897598;76;20116;-60
2021/10/05 10:09:15;;;;;;;;;;;;;;;9.01;88.04;102013.83;1897560;76;20194;-61
2021/10/05 10:11:43;;;;;;;;;;;;;;;9.04;87.91;102013.80;1897597;76;20116;-61
2021/10/05 10:14:12;;;;;;;;;;;;;;;9.08;87.71;102019.44;1897605;76;20143;-61
2021/10/05 10:16:41;;;;;;;;;;;;;;;9.10;87.49;102018.97;1897417;76;20145;-60
2021/10/05 10:19:09;;;;;;;;;;;;;;;9.12;86.93;102018.50;1897497;76;20374;-61
2021/10/05 10:21:40;;;;;;;;;;;;;;;9.15;86.92;102018.48;1897472;76;20120;-61
2021/10/05 10:24:12;;;;;;;;;;;;;;;9.18;86.68;102020.19;1897506;76;20120;-61
2021/10/05 10:26:43;;;;;;;;;;;;;;;9.21;86.85;102018.38;1897587;76;20120;-61
2021/10/05 10:29:11;;;;;;;;;;;;;;;9.25;86.46;102025.78;1897370;75;20109;-62
2021/10/05 10:31:39;;;;;;;;;;;;;;;9.29;86.19;102026.16;1897488;76;20116;-61
2021/10/05 10:34:07;;;;;;;;;;;;;;;9.32;85.83;102023.51;1897548;76;20120;-61
2021/10/05 10:36:42;;;;;;;;;;;;;;;9.35;85.29;102031.36;1897449;75;20151;-61
2021/10/05 10:39:13;;;;;;;;;;;;;;;9.40;85.21;102031.28;1897466;75;20159;-60
2021/10/05 10:41:46;;;;;;;;;;;;;;;9.44;84.83;102032.55;1897399;76;20116;-61
2021/10/05 10:44:16;;;;;;;;;;;;;;;9.47;84.62;102035.57;1897564;76;20374;-61
2021/10/05 10:46:44;;;;;;;;;;;;;;;9.49;84.83;102032.47;1938770;73;20108;-60
2021/10/05 10:49:13;;;;;;;;;;;;;;;9.50;84.66;102028.08;1954876;73;20120;-60
2021/10/05 10:51:42;;;;;;;;;;;;;;;9.52;84.55;102028.50;1954630;73;20101;-61
2021/10/05 10:54:21;;;;;;;;;;;;;;;9.56;84.94;102029.33;1954615;73;20386;-61
2021/10/05 10:57:00;;;;;;;;;;;;;;;9.57;84.79;102024.05;1954743;73;20378;-61
2021/10/05 10:59:29;;;;;;;;;;;;;;;9.59;83.93;102030.16;1954780;73;20108;-61
2021/10/05 11:02:01;;;;;;;;;;;;;;;9.64;84.38;102033.56;1954730;73;20158;-61
2021/10/05 11:04:29;;;;;;;;;;;;;;;9.65;84.20;102027.42;1950839;73;20116;-61
2021/10/05 11:06:58;;;;;;;;;;;;;;;9.71;84.47;102030.41;1954737;73;20150;-60
2021/10/05 11:09:33;;;;;;;;;;;;;;;9.74;84.42;102036.95;1954733;73;20156;-61
2021/10/05 11:12:02;;;;;;;;;;;;;;;9.77;84.32;102038.65;1954611;73;20382;-60
2021/10/05 11:14:38;;;;;;;;;;;;;;;9.80;84.29;102035.98;1954755;73;20104;-60
2021/10/05 11:17:07;;;;;;;;;;;;;;;9.83;84.22;102035.92;1954653;73;20167;-62
2021/10/05 11:19:36;;;;;;;;;;;;;;;9.85;83.60;102037.66;1954769;73;20146;-61
2021/10/05 11:22:06;;;;;;;;;;;;;;;9.86;83.47;102039.38;1954748;73;20143;-61
2021/10/05 11:24:39;;;;;;;;;;;;;;;9.87;83.61;102042.89;1954749;73;20397;-60
2021/10/05 11:27:15;;;;;;;;;;;;;;;9.86;83.44;102043.32;1954799;73;20382;-60
2021/10/05 11:29:43;;;;;;;;;;;;;;;9.86;83.40;102041.14;1954604;73;20112;-60
2021/10/05 11:32:13;;;;;;;;;;;;;;;9.88;83.63;102045.07;1954684;73;20154;-60
2021/10/05 11:34:42;;;;;;;;;;;;;;;9.88;83.18;102045.93;1954627;73;20402;-60
2021/10/05 11:37:11;;;;;;;;;;;;;;;9.92;83.06;102048.06;1954713;73;20112;-60
2021/10/05 11:39:39;;;;;;;;;;;;;;;9.95;82.99;102049.35;1954637;73;20132;-60
2021/10/05 11:42:12;;;;;;;;;;;;;;;10.00;82.92;102048.38;1954769;73;20100;-60
2021/10/05 11:44:41;;;;;;;;;;;;;;;10.04;82.73;102046.57;1954766;73;20147;-60
2021/10/05 11:47:10;;;;;;;;;;;;;;;10.08;82.58;102054.83;1954660;73;20154;-59
2021/10/05 11:49:41;;;;;;;;;;;;;;;10.10;81.92;102054.81;1954638;73;20120;-60
2021/10/05 11:52:13;;;;;;;;;;;;;;;10.13;82.40;102056.95;1954673;73;20386;-60
2021/10/05 11:54:41;;;;;;;;;;;;;;;10.15;82.26;102055.62;1954579;73;20139;-60
2021/10/05 11:57:16;;;;;;;;;;;;;;;10.17;82.15;102056.45;1954678;73;20116;-60
2021/10/05 11:59:44;;;;;;;;;;;;;;;10.21;82.16;102051.56;1954634;73;20354;-60
2021/10/05 12:02:13;;;;;;;;;;;;;;;10.23;82.27;102059.84;1954982;73;20124;-60
2021/10/05 12:04:43;;;;;;;;;;;;;;;10.24;81.96;102068.17;1954679;73;20138;-60
2021/10/05 12:07:15;;;;;;;;;;;;;;;10.26;82.11;102054.98;1954716;73;20116;-60
2021/10/05 12:09:43;;;;;;;;;;;;;;;10.27;81.83;102061.11;1954671;73;20152;-60
2021/10/05 12:12:12;;;;;;;;;;;;;;;10.27;81.76;102069.88;1954682;73;20112;-60
2021/10/05 12:14:47;;;;;;;;;;;;;;;10.28;81.80;102068.99;1954630;73;20154;-59
2021/10/05 12:17:16;;;;;;;;;;;;;;;10.30;81.89;102075.09;1946806;73;20112;-60
2021/10/05 12:19:46;;;;;;;;;;;;;;;10.31;81.80;102074.25;1954756;73;20112;-60
2021/10/05 12:22:15;;;;;;;;;;;;;;;10.34;81.96;102074.17;1954679;73;20108;-60
2021/10/05 12:24:47;;;;;;;;;;;;;;;10.36;82.09;102082.92;1954696;73;20111;-60
2021/10/05 12:27:18;;;;;;;;;;;;;;;10.39;82.11;102082.02;1954677;73;20124;-60
2021/10/05 12:29:47;;;;;;;;;;;;;;;10.38;81.59;102082.47;1954660;73;20194;-60
2021/10/05 12:32:15;;;;;;;;;;;;;;;10.39;81.98;102081.56;1954583;73;20116;-60
2021/10/05 12:34:49;;;;;;;;;;;;;;;10.40;81.75;102084.63;1954639;73;20116;-60
2021/10/05 12:37:12;;;;;;;;;;;;;;;10.40;81.76;102079.36;1953106;73;20112;-61
2021/10/05 12:39:40;;;;;;;;;;;;;;;10.39;81.87;102084.19;1954676;73;20112;-62
2021/10/05 12:42:08;;;;;;;;;;;;;;;10.39;81.90;102088.59;1954881;73;20444;-62
2021/10/05 12:44:36;;;;;;;;;;;;;;;10.37;81.72;102075.45;1954664;73;20215;-62
2021/10/05 12:47:08;;;;;;;;;;;;;;;10.36;81.88;102073.70;1954495;73;20225;-62
2021/10/05 12:49:37;;;;;;;;;;;;;;;10.35;81.89;102086.46;1954722;73;20171;-62
2021/10/05 12:52:05;;;;;;;;;;;;;;;10.36;81.88;102082.92;1954663;73;20143;-61
2021/10/05 12:54:33;;;;;;;;;;;;;;;10.37;81.71;102089.08;1954637;73;20393;-61
2021/10/05 12:57:02;;;;;;;;;;;;;;;10.39;81.49;102082.02;1954628;73;20273;-61
2021/10/05 12:59:30;;;;;;;;;;;;;;;10.42;81.49;102092.05;1954560;73;20187;-62
2021/10/05 13:01:58;;;;;;;;;;;;;;;10.43;81.25;102091.14;1954676;73;20120;-62